createdAt,value
2023-02-08T00:02:21.542Z,-3.30
2023-02-08T00:04:50.701Z,-3.30
2023-02-08T00:07:18.494Z,-3.30
2023-02-08T00:09:46.288Z,-3.30
2023-02-08T00:12:14.170Z,-3.30
2023-02-08T00:14:42.076Z,-3.50
2023-02-08T00:17:09.887Z,-3.50
2023-02-08T00:19:37.762Z,-3.50
2023-02-08T00:22:06.990Z,-3.40
2023-02-08T00:24:34.946Z,-3.50
2023-02-08T00:27:02.797Z,-3.50
2023-02-08T00:29:30.618Z,-3.60
2023-02-08T00:31:58.525Z,-3.60
2023-02-08T00:34:26.402Z,-3.50
2023-02-08T00:36:54.184Z,-3.70
2023-02-08T00:39:24.449Z,-3.80
2023-02-08T00:41:52.257Z,-3.80
2023-02-08T00:44:20.258Z,-3.80
2023-02-08T00:46:48.094Z,-3.80
2023-02-08T00:49:16.078Z,-3.70
2023-02-08T00:51:43.845Z,-3.70
2023-02-08T00:54:15.699Z,-3.80
2023-02-08T00:56:45.568Z,-3.80
2023-02-08T00:59:13.783Z,-3.80
2023-02-08T01:01:42.494Z,-3.70
2023-02-08T01:04:10.609Z,-3.70
2023-02-08T01:06:38.507Z,-3.70
2023-02-08T01:09:06.347Z,-3.70
2023-02-08T01:11:34.158Z,-3.70
2023-02-08T01:14:03.336Z,-3.70
2023-02-08T01:16:32.704Z,-3.70
2023-02-08T01:19:02.262Z,-3.70
2023-02-08T01:21:32.489Z,-3.70
2023-02-08T01:24:01.336Z,-3.70
2023-02-08T01:26:29.208Z,-3.70
2023-02-08T01:28:57.802Z,-3.60
2023-02-08T01:31:29.847Z,-3.60
2023-02-08T01:33:58.298Z,-3.60
2023-02-08T01:36:27.247Z,-3.70
2023-02-08T01:38:55.316Z,-3.80
2023-02-08T01:41:25.898Z,-3.70
2023-02-08T01:44:07.368Z,-3.80
2023-02-08T01:46:38.319Z,-3.80
2023-02-08T01:49:13.568Z,-3.80
2023-02-08T01:51:45.554Z,-3.90
2023-02-08T01:54:15.750Z,-3.80
2023-02-08T01:56:45.949Z,-3.90
2023-02-08T01:59:19.063Z,-3.80
2023-02-08T02:01:50.958Z,-3.80
2023-02-08T02:04:18.974Z,-3.90
2023-02-08T02:06:50.073Z,-3.90
2023-02-08T02:09:22.578Z,-4.00
2023-02-08T02:11:52.312Z,-4.10
2023-02-08T02:14:20.632Z,-4.00
2023-02-08T02:16:49.853Z,-4.10
2023-02-08T02:19:30.016Z,-4.10
2023-02-08T02:22:09.275Z,-4.00
2023-02-08T02:24:53.658Z,-4.00
2023-02-08T02:27:32.685Z,-4.00
2023-02-08T02:30:34.954Z,-4.00
2023-02-08T02:33:34.069Z,-3.90
2023-02-08T02:36:05.104Z,-4.00
2023-02-08T02:38:45.233Z,-4.00
2023-02-08T02:41:41.767Z,-4.00
2023-02-08T02:44:19.501Z,-4.10
2023-02-08T02:46:53.693Z,-4.10
2023-02-08T02:49:28.458Z,-4.00
2023-02-08T02:52:02.880Z,-4.00
2023-02-08T02:54:36.060Z,-4.00
2023-02-08T02:57:07.521Z,-4.20
2023-02-08T02:59:36.978Z,-4.20
2023-02-08T03:02:05.305Z,-4.10
2023-02-08T03:04:52.976Z,-4.00
2023-02-08T03:07:32.496Z,-4.10
2023-02-08T03:10:11.469Z,-4.10
2023-02-08T03:12:53.967Z,-4.10
2023-02-08T03:15:30.765Z,-4.10
2023-02-08T03:18:06.600Z,-4.10
2023-02-08T03:20:40.478Z,-4.30
2023-02-08T03:23:14.589Z,-4.30
2023-02-08T03:25:51.513Z,-4.20
2023-02-08T03:28:24.974Z,-4.30
2023-02-08T03:31:00.746Z,-4.30
2023-02-08T03:33:35.678Z,-4.20
2023-02-08T03:36:09.704Z,-4.30
2023-02-08T03:38:40.788Z,-4.30
2023-02-08T03:41:12.374Z,-4.30
2023-02-08T03:43:45.869Z,-4.20
2023-02-08T03:46:18.306Z,-4.30
2023-02-08T03:48:49.552Z,-4.30
2023-02-08T03:51:22.300Z,-4.40
2023-02-08T03:53:53.613Z,-4.30
2023-02-08T03:56:27.634Z,-4.30
2023-02-08T03:59:01.983Z,-4.30
2023-02-08T04:01:36.646Z,-4.30
2023-02-08T04:04:05.496Z,-4.20
2023-02-08T04:06:34.917Z,-4.30
2023-02-08T04:09:02.725Z,-4.30
2023-02-08T04:11:30.644Z,-4.30
2023-02-08T04:13:58.522Z,-4.40
2023-02-08T04:16:26.589Z,-4.30
2023-02-08T04:18:54.413Z,-4.40
2023-02-08T04:21:22.265Z,-4.40
2023-02-08T04:23:51.406Z,-4.40
2023-02-08T04:26:19.235Z,-4.30
2023-02-08T04:28:47.017Z,-4.40
2023-02-08T04:31:14.910Z,-4.40
2023-02-08T04:33:42.763Z,-4.30
2023-02-08T04:36:10.708Z,-4.20
2023-02-08T04:38:38.673Z,-4.30
2023-02-08T04:41:07.941Z,-4.30
2023-02-08T04:43:37.817Z,-4.20
2023-02-08T04:46:05.642Z,-4.20
2023-02-08T04:48:33.487Z,-4.20
2023-02-08T04:51:01.581Z,-4.20
2023-02-08T04:53:29.415Z,-4.20
2023-02-08T04:55:57.227Z,-4.20
2023-02-08T04:58:26.445Z,-4.20
2023-02-08T05:00:54.207Z,-4.20
2023-02-08T05:03:22.101Z,-4.30
2023-02-08T05:05:58.633Z,-4.40
2023-02-08T05:08:27.357Z,-4.30
2023-02-08T05:10:55.222Z,-4.40
2023-02-08T05:13:23.109Z,-4.40
2023-02-08T05:15:52.316Z,-4.40
2023-02-08T05:18:20.236Z,-4.40
2023-02-08T05:20:55.765Z,-4.40
2023-02-08T05:23:23.689Z,-4.40
2023-02-08T05:25:52.028Z,-4.50
2023-02-08T05:28:20.763Z,-4.50
2023-02-08T05:30:49.081Z,-4.50
2023-02-08T05:33:19.152Z,-4.50
2023-02-08T05:35:47.151Z,-4.50
2023-02-08T05:38:14.999Z,-4.50
2023-02-08T05:40:42.990Z,-4.50
2023-02-08T05:43:11.065Z,-4.50
2023-02-08T05:45:38.952Z,-4.60
2023-02-08T05:48:06.943Z,-4.50
2023-02-08T05:50:36.134Z,-4.50
2023-02-08T05:53:03.953Z,-4.50
2023-02-08T05:55:31.828Z,-4.50
2023-02-08T05:57:59.616Z,-4.60
2023-02-08T06:00:27.571Z,-4.60
2023-02-08T06:02:55.434Z,-4.60
2023-02-08T06:05:23.420Z,-4.60
2023-02-08T06:07:52.739Z,-4.70
2023-02-08T06:10:20.660Z,-4.60
2023-02-08T06:12:48.623Z,-4.50
2023-02-08T06:15:16.554Z,-4.50
2023-02-08T06:17:44.381Z,-4.40
2023-02-08T06:20:12.764Z,-4.40
2023-02-08T06:22:40.620Z,-4.30
2023-02-08T06:25:10.649Z,-4.30
2023-02-08T06:27:38.522Z,-4.50
2023-02-08T06:30:06.744Z,-4.50
2023-02-08T06:32:34.590Z,-4.50
2023-02-08T06:35:02.853Z,-4.50
2023-02-08T06:37:30.653Z,-4.60
2023-02-08T06:39:58.905Z,-4.60
2023-02-08T06:42:28.244Z,-4.60
2023-02-08T06:44:57.901Z,-4.60
2023-02-08T06:47:26.757Z,-4.50
2023-02-08T06:49:55.109Z,-4.50
2023-02-08T06:52:22.946Z,-4.50
2023-02-08T06:54:50.722Z,-4.50
2023-02-08T06:57:18.563Z,-4.60
2023-02-08T06:59:48.269Z,-4.50
2023-02-08T07:02:18.045Z,-4.50
2023-02-08T07:04:46.249Z,-4.50
2023-02-08T07:07:14.241Z,-4.60
2023-02-08T07:09:42.454Z,-4.60
2023-02-08T07:12:11.117Z,-4.50
2023-02-08T07:14:41.543Z,-4.40
2023-02-08T07:17:11.385Z,-4.30
2023-02-08T07:19:39.976Z,-4.20
2023-02-08T07:22:08.943Z,-4.30
2023-02-08T07:24:37.536Z,-4.40
2023-02-08T07:27:06.748Z,-4.40
2023-02-08T07:29:35.141Z,-4.30
2023-02-08T07:32:04.094Z,-4.40
2023-02-08T07:34:36.037Z,-4.20
2023-02-08T07:37:04.306Z,-4.20
2023-02-08T07:39:32.108Z,-4.30
2023-02-08T07:42:00.340Z,-4.10
2023-02-08T07:44:28.240Z,-4.10
2023-02-08T07:46:56.114Z,-3.90
2023-02-08T07:49:24.056Z,-4.00
2023-02-08T07:51:53.224Z,-4.00
2023-02-08T07:54:21.014Z,-3.90
2023-02-08T07:56:48.817Z,-3.90
2023-02-08T07:59:16.727Z,-3.80
2023-02-08T08:01:44.612Z,-3.80
2023-02-08T08:04:12.705Z,-3.80
2023-02-08T08:06:40.572Z,-3.70
2023-02-08T08:09:09.713Z,-3.60
2023-02-08T08:11:37.461Z,-3.60
2023-02-08T08:14:05.322Z,-3.60
2023-02-08T08:16:33.200Z,-3.50
2023-02-08T08:19:01.014Z,-3.50
2023-02-08T08:21:28.941Z,-3.50
2023-02-08T08:23:56.702Z,-3.30
2023-02-08T08:26:25.877Z,-3.40
2023-02-08T08:28:53.758Z,-3.40
2023-02-08T08:31:22.681Z,-3.30
2023-02-08T08:33:50.977Z,-3.30
2023-02-08T08:36:19.708Z,-3.20
2023-02-08T08:38:47.516Z,-3.10
2023-02-08T08:41:18.592Z,-3.10
2023-02-08T08:43:47.735Z,-2.90
2023-02-08T08:46:16.578Z,-2.90
2023-02-08T08:48:44.805Z,-2.80
2023-02-08T08:51:14.048Z,-2.70
2023-02-08T08:53:42.092Z,-2.60
2023-02-08T08:56:09.907Z,-2.60
2023-02-08T08:58:37.733Z,-2.50
2023-02-08T09:01:07.325Z,-2.40
2023-02-08T09:03:35.160Z,-2.40
2023-02-08T09:06:02.996Z,-2.40
2023-02-08T09:08:30.763Z,-2.30
2023-02-08T09:10:58.540Z,-2.30
2023-02-08T09:13:26.366Z,-2.30
2023-02-08T09:15:54.255Z,-2.30
2023-02-08T09:18:23.417Z,-2.40
2023-02-08T09:20:51.277Z,-2.30
2023-02-08T09:23:19.081Z,-2.20
2023-02-08T09:25:48.074Z,-2.20
2023-02-08T09:28:17.004Z,-2.30
2023-02-08T09:30:45.624Z,-2.10
2023-02-08T09:33:13.652Z,-2.00
2023-02-08T09:35:43.185Z,-1.90
2023-02-08T09:40:50.595Z,-1.80
2023-02-08T09:43:23.274Z,-1.60
2023-02-08T09:46:00.233Z,-1.40
2023-02-08T09:48:33.138Z,-1.30
2023-02-08T09:51:07.864Z,-1.40
2023-02-08T09:53:41.088Z,-1.30
2023-02-08T09:56:15.284Z,-1.30
2023-02-08T09:58:45.602Z,-1.30
2023-02-08T10:01:19.925Z,-1.20
2023-02-08T10:03:48.981Z,-1.20
2023-02-08T10:06:19.703Z,-1.10
2023-02-08T10:08:51.338Z,-1.10
2023-02-08T10:11:43.208Z,-0.90
2023-02-08T10:14:41.056Z,-0.80
2023-02-08T10:17:26.395Z,-0.80
2023-02-08T10:20:05.451Z,-0.90
2023-02-08T10:22:45.797Z,-0.80
2023-02-08T10:25:28.839Z,-0.80
2023-02-08T10:28:25.101Z,-0.70
2023-02-08T10:30:59.122Z,-0.70
2023-02-08T10:33:33.057Z,-0.50
2023-02-08T10:36:00.863Z,-0.60
2023-02-08T10:38:45.476Z,-0.60
2023-02-08T10:41:20.424Z,-0.60
2023-02-08T10:43:56.240Z,-0.40
2023-02-08T10:46:30.465Z,-0.40
2023-02-08T10:49:08.146Z,-0.20
2023-02-08T10:51:36.255Z,0.00
2023-02-08T10:54:05.658Z,0.00
2023-02-08T10:56:41.987Z,0.00
2023-02-08T10:59:18.359Z,0.20
2023-02-08T11:01:47.995Z,0.30
2023-02-08T11:04:17.477Z,0.20
2023-02-08T11:06:47.614Z,0.20
2023-02-08T11:09:25.638Z,0.40
2023-02-08T11:11:54.834Z,0.40
2023-02-08T11:14:35.040Z,0.30
2023-02-08T11:17:26.407Z,0.40
2023-02-08T11:19:54.405Z,0.40
2023-02-08T11:22:24.883Z,0.40
2023-02-08T11:24:58.839Z,0.50
2023-02-08T11:27:34.915Z,0.50
2023-02-08T11:30:21.359Z,0.50
2023-02-08T11:33:10.588Z,0.50
2023-02-08T11:35:38.687Z,0.40
2023-02-08T11:38:06.448Z,0.50
2023-02-08T11:40:38.086Z,0.40
2023-02-08T11:43:06.677Z,0.30
2023-02-08T11:45:37.097Z,0.30
2023-02-08T11:48:07.920Z,0.20
2023-02-08T11:50:38.321Z,0.10
2023-02-08T11:53:08.367Z,0.20
2023-02-08T11:55:37.491Z,0.10
2023-02-08T11:58:07.115Z,0.10
2023-02-08T12:00:37.399Z,0.30
2023-02-08T12:03:09.019Z,0.40
2023-02-08T12:05:45.068Z,0.30
2023-02-08T12:08:23.564Z,0.30
2023-02-08T12:11:07.393Z,0.40
2023-02-08T12:14:02.673Z,0.50
2023-02-08T12:16:44.457Z,0.60
2023-02-08T12:19:50.881Z,0.40
2023-02-08T12:22:24.644Z,0.30
2023-02-08T12:25:01.571Z,0.30
2023-02-08T12:27:41.872Z,0.40
2023-02-08T12:30:23.256Z,0.40
2023-02-08T12:33:08.053Z,0.50
2023-02-08T12:36:04.168Z,0.40
2023-02-08T12:39:21.360Z,0.30
2023-02-08T12:42:08.782Z,0.20
2023-02-08T12:44:49.939Z,0.10
2023-02-08T12:47:34.863Z,0.20
2023-02-08T12:50:16.957Z,0.30
2023-02-08T12:52:47.826Z,0.30
2023-02-08T12:55:19.759Z,0.30
2023-02-08T12:57:52.835Z,0.50
2023-02-08T13:00:24.833Z,0.40
2023-02-08T13:03:00.485Z,0.30
2023-02-08T13:05:32.568Z,0.30
2023-02-08T13:08:08.020Z,0.30
2023-02-08T13:10:38.391Z,0.50
2023-02-08T13:13:18.813Z,0.40
2023-02-08T13:15:54.790Z,0.40
2023-02-08T13:18:25.260Z,0.50
2023-02-08T13:20:58.501Z,0.40
2023-02-08T13:23:29.482Z,0.40
2023-02-08T13:26:01.087Z,0.40
2023-02-08T13:28:30.046Z,0.50
2023-02-08T13:31:04.185Z,0.60
2023-02-08T13:33:55.649Z,0.50
2023-02-08T13:36:30.928Z,0.30
2023-02-08T13:39:00.095Z,0.30
2023-02-08T13:41:29.577Z,0.20
2023-02-08T13:44:01.970Z,0.30
2023-02-08T13:46:46.435Z,0.40
2023-02-08T13:49:52.298Z,0.40
2023-02-08T13:52:49.460Z,0.40
2023-02-08T13:55:57.413Z,0.20
2023-02-08T13:59:03.626Z,0.30
2023-02-08T14:01:34.659Z,0.10
2023-02-08T14:04:37.185Z,0.20
2023-02-08T14:07:15.128Z,0.20
2023-02-08T14:09:51.659Z,0.30
2023-02-08T14:12:26.505Z,0.10
2023-02-08T14:15:30.085Z,0.20
2023-02-08T14:18:00.708Z,0.30
2023-02-08T14:20:32.520Z,0.20
2023-02-08T14:23:03.439Z,0.30
2023-02-08T14:25:44.303Z,0.30
2023-02-08T14:28:27.815Z,0.20
2023-02-08T14:30:58.336Z,0.20
2023-02-08T14:33:30.022Z,0.20
2023-02-08T14:36:00.399Z,0.20
2023-02-08T14:38:53.700Z,0.20
2023-02-08T14:41:44.827Z,0.20
2023-02-08T14:44:55.531Z,0.30
2023-02-08T14:48:06.226Z,0.30
2023-02-08T14:50:42.680Z,0.30
2023-02-08T14:53:25.981Z,0.30
2023-02-08T14:55:59.235Z,0.20
2023-02-08T14:58:33.046Z,0.20
2023-02-08T15:01:04.503Z,0.20
2023-02-08T15:03:34.487Z,0.20
2023-02-08T15:06:49.775Z,0.20
2023-02-08T15:09:21.322Z,0.20
2023-02-08T15:11:59.131Z,0.00
2023-02-08T15:14:27.709Z,0.00
2023-02-08T15:16:56.984Z,0.00
2023-02-08T15:19:28.829Z,0.20
2023-02-08T15:22:18.174Z,0.70
2023-02-08T15:24:53.940Z,0.90
2023-02-08T15:27:23.687Z,1.20
2023-02-08T15:29:51.784Z,0.80
2023-02-08T15:32:22.887Z,0.50
2023-02-08T15:34:54.518Z,0.30
2023-02-08T15:37:23.675Z,0.20
2023-02-08T15:39:54.075Z,0.10
2023-02-08T15:42:24.815Z,0.10
2023-02-08T15:44:53.672Z,0.00
2023-02-08T15:47:27.656Z,0.00
2023-02-08T15:49:56.367Z,-0.10
2023-02-08T15:52:28.993Z,-0.10
2023-02-08T15:54:57.071Z,-0.20
2023-02-08T15:57:35.356Z,-0.10
2023-02-08T16:00:05.233Z,-0.20
2023-02-08T16:02:34.958Z,-0.40
2023-02-08T16:05:11.953Z,-0.50
2023-02-08T16:07:46.548Z,-0.50
2023-02-08T16:10:29.809Z,-0.50
2023-02-08T16:12:59.648Z,-0.50
2023-02-08T16:15:42.260Z,-0.60
2023-02-08T16:18:36.261Z,-0.50
2023-02-08T16:21:06.171Z,-0.50
2023-02-08T16:23:39.647Z,-0.60
2023-02-08T16:26:18.217Z,-0.60
2023-02-08T16:28:53.620Z,-0.70
2023-02-08T16:31:24.617Z,-0.70
2023-02-08T16:34:03.148Z,-0.80
2023-02-08T16:36:36.480Z,-0.90
2023-02-08T16:39:35.951Z,-0.90
2023-02-08T16:42:15.344Z,-0.90
2023-02-08T16:45:01.069Z,-1.00
2023-02-08T16:47:35.896Z,-1.00
2023-02-08T16:50:04.142Z,-1.00
2023-02-08T16:52:32.731Z,-1.10
2023-02-08T16:55:02.420Z,-1.10
2023-02-08T16:57:41.532Z,-1.10
2023-02-08T17:00:22.317Z,-1.10
2023-02-08T17:02:50.368Z,-1.10
2023-02-08T17:05:19.283Z,-1.10
2023-02-08T17:07:47.670Z,-1.10
2023-02-08T17:10:24.570Z,-1.20
2023-02-08T17:12:59.636Z,-1.00
2023-02-08T17:15:32.216Z,-1.20
2023-02-08T17:18:00.042Z,-1.10
2023-02-08T17:20:29.968Z,-1.10
2023-02-08T17:22:59.593Z,-1.10
2023-02-08T17:25:29.824Z,-1.20
2023-02-08T17:27:59.946Z,-1.30
2023-02-08T17:30:30.357Z,-1.30
2023-02-08T17:32:58.234Z,-1.30
2023-02-08T17:35:28.456Z,-1.30
2023-02-08T17:37:57.932Z,-1.30
2023-02-08T17:40:30.926Z,-1.30
2023-02-08T17:42:58.970Z,-1.40
2023-02-08T17:45:26.834Z,-1.50
2023-02-08T17:47:55.097Z,-1.40
2023-02-08T17:50:23.180Z,-1.40
2023-02-08T17:52:50.952Z,-1.40
2023-02-08T17:55:19.622Z,-1.50
2023-02-08T17:57:48.781Z,-1.50
2023-02-08T18:00:18.626Z,-1.50
2023-02-08T18:02:47.954Z,-1.50
2023-02-08T18:05:16.594Z,-1.40
2023-02-08T18:07:44.621Z,-1.40
2023-02-08T18:10:14.000Z,-1.40
2023-02-08T18:12:42.456Z,-1.50
2023-02-08T18:15:14.691Z,-1.50
2023-02-08T18:17:43.521Z,-1.50
2023-02-08T18:20:14.042Z,-1.50
2023-02-08T18:22:42.445Z,-1.60
2023-02-08T18:25:11.107Z,-1.60
2023-02-08T18:27:39.016Z,-1.60
2023-02-08T18:30:07.665Z,-1.70
2023-02-08T18:32:36.909Z,-1.70
2023-02-08T18:35:06.693Z,-1.60
2023-02-08T18:37:34.993Z,-1.70
2023-02-08T18:40:03.328Z,-1.70
2023-02-08T18:42:31.207Z,-1.70
2023-02-08T18:44:59.133Z,-1.60
2023-02-08T18:47:26.920Z,-1.70
2023-02-08T18:49:57.486Z,-1.70
2023-02-08T18:52:25.356Z,-1.70
2023-02-08T18:54:53.417Z,-1.70
2023-02-08T18:57:21.298Z,-1.80
2023-02-08T18:59:50.087Z,-1.90
2023-02-08T19:02:20.879Z,-2.00
2023-02-08T19:04:49.292Z,-2.00
2023-02-08T19:07:18.550Z,-1.90
2023-02-08T19:09:46.350Z,-2.00
2023-02-08T19:12:15.421Z,-1.90
2023-02-08T19:14:44.081Z,-2.00
2023-02-08T19:17:14.769Z,-2.00
2023-02-08T19:19:42.861Z,-2.00
2023-02-08T19:22:10.813Z,-2.00
2023-02-08T19:24:40.088Z,-2.10
2023-02-08T19:27:07.892Z,-2.00
2023-02-08T19:29:36.505Z,-2.10
2023-02-08T19:32:04.793Z,-2.20
2023-02-08T19:34:32.651Z,-2.10
2023-02-08T19:37:00.802Z,-2.10
2023-02-08T19:39:28.757Z,-2.20
2023-02-08T19:41:59.041Z,-2.20
2023-02-08T19:44:30.128Z,-2.20
2023-02-08T19:46:58.826Z,-2.20
2023-02-08T19:49:28.202Z,-2.20
2023-02-08T19:51:56.278Z,-2.20
2023-02-08T19:54:24.487Z,-2.20
2023-02-08T19:56:54.726Z,-2.20
2023-02-08T19:59:26.592Z,-2.30
2023-02-08T20:01:55.634Z,-2.30
2023-02-08T20:04:24.077Z,-2.30
2023-02-08T20:06:53.832Z,-2.30
2023-02-08T20:09:22.251Z,-2.30
2023-02-08T20:11:57.213Z,-2.30
2023-02-08T20:14:28.929Z,-2.30
2023-02-08T20:16:56.936Z,-2.30
2023-02-08T20:19:24.887Z,-2.40
2023-02-08T20:21:52.960Z,-2.40
2023-02-08T20:24:21.190Z,-2.30
2023-02-08T20:26:49.701Z,-2.30
2023-02-08T20:29:18.134Z,-2.30
2023-02-08T20:31:49.473Z,-2.40
2023-02-08T20:34:19.003Z,-2.40
2023-02-08T20:37:04.499Z,-2.40
2023-02-08T20:39:34.745Z,-2.50
2023-02-08T20:42:02.586Z,-2.50
2023-02-08T20:44:31.440Z,-2.50
2023-02-08T20:47:00.673Z,-2.50
2023-02-08T20:49:29.314Z,-2.50
2023-02-08T20:51:57.167Z,-2.50
2023-02-08T20:54:25.558Z,-2.50
2023-02-08T20:56:54.285Z,-2.50
2023-02-08T20:59:22.295Z,-2.50
2023-02-08T21:01:50.246Z,-2.60
2023-02-08T21:04:23.051Z,-2.50
2023-02-08T21:06:51.852Z,-2.50
2023-02-08T21:09:21.224Z,-2.60
2023-02-08T21:11:49.891Z,-2.60
2023-02-08T21:14:20.526Z,-2.60
2023-02-08T21:16:49.436Z,-2.60
2023-02-08T21:19:20.327Z,-2.70
2023-02-08T21:21:51.375Z,-2.60
2023-02-08T21:24:19.230Z,-2.60
2023-02-08T21:26:47.331Z,-2.70
2023-02-08T21:29:15.197Z,-2.70
2023-02-08T21:31:43.071Z,-2.70
2023-02-08T21:34:12.755Z,-2.80
2023-02-08T21:36:41.904Z,-2.80
2023-02-08T21:39:09.692Z,-2.80
2023-02-08T21:41:37.503Z,-2.80
2023-02-08T21:44:08.248Z,-2.90
2023-02-08T21:46:36.249Z,-2.90
2023-02-08T21:49:22.092Z,-3.00
2023-02-08T21:52:08.655Z,-3.10
2023-02-08T21:54:43.949Z,-3.10
2023-02-08T21:57:15.253Z,-3.00
2023-02-08T21:59:44.287Z,-3.10
2023-02-08T22:02:14.512Z,-3.10
2023-02-08T22:05:00.020Z,-3.10
2023-02-08T22:07:29.958Z,-3.10
2023-02-08T22:09:57.804Z,-3.20
2023-02-08T22:12:25.705Z,-3.20
2023-02-08T22:14:53.526Z,-3.20
2023-02-08T22:17:21.410Z,-3.30
2023-02-08T22:19:49.295Z,-3.30
2023-02-08T22:22:17.291Z,-3.30
2023-02-08T22:24:46.433Z,-3.20
2023-02-08T22:27:14.254Z,-3.20
2023-02-08T22:29:42.079Z,-3.20
2023-02-08T22:32:10.883Z,-3.30
2023-02-08T22:34:42.124Z,-3.30
2023-02-08T22:37:09.996Z,-3.40
2023-02-08T22:39:37.966Z,-3.40
2023-02-08T22:42:11.928Z,-3.40
2023-02-08T22:44:40.664Z,-3.40
2023-02-08T22:47:10.225Z,-3.50
2023-02-08T22:49:39.259Z,-3.60
2023-02-08T22:52:08.638Z,-3.40
2023-02-08T22:54:36.961Z,-3.40
2023-02-08T22:57:05.873Z,-3.40
2023-02-08T22:59:35.685Z,-3.40
2023-02-08T23:02:03.761Z,-3.40
2023-02-08T23:04:32.103Z,-3.30
2023-02-08T23:07:02.545Z,-3.50
2023-02-08T23:09:30.372Z,-3.50
2023-02-08T23:11:58.247Z,-3.50
2023-02-08T23:14:26.089Z,-3.40
2023-02-08T23:16:55.718Z,-3.40
2023-02-08T23:19:23.740Z,-3.50
2023-02-08T23:21:51.832Z,-3.50
2023-02-08T23:24:19.980Z,-3.50
2023-02-08T23:26:48.302Z,-3.50
2023-02-08T23:29:16.183Z,-3.50
2023-02-08T23:31:44.889Z,-3.50
2023-02-08T23:34:14.094Z,-3.50
2023-02-08T23:36:42.067Z,-3.70
2023-02-08T23:39:09.865Z,-3.70
2023-02-08T23:41:37.774Z,-3.70
2023-02-08T23:44:05.668Z,-3.80
2023-02-08T23:46:33.672Z,-3.70
2023-02-08T23:49:01.543Z,-3.70
2023-02-08T23:51:30.823Z,-3.80
2023-02-08T23:53:58.616Z,-3.90
2023-02-08T23:56:27.604Z,-4.00
2023-02-08T23:58:56.922Z,-4.10
